Southowram, United Kingdom
Current Conditions -  °F | °C
As of 12:20 AM on Saturday 22 Nov 2014 (Local Time) from EGNM Reporting Station
Moderate Rain Moderate Rain  
Wind Chill: 37°   Ceiling: 400
Heat Index: 45°   Visibility: 1.2mi
Dew Point: 45°   Wind: 17mph
Humidity: 100%   Direction: 140°SE
Pressure: 29.83"   Gusts: NA
Location:  53.71°N, 1.83°W
Report Text: EGNM 220020Z 14015KT 2000 RA BR SCT002 BKN004 07/07 Q1010
Loading
Personal Weather Stations






























Interactive Weather Map New forecast layout! Learn more

10-Day Weather Forecast

Advertisements
Track Severe Weather on mobile